createdAt,value
2022-09-12T00:01:33.029Z,1012.2
2022-09-12T00:07:53.003Z,1012.14
2022-09-12T00:14:16.000Z,1012.1
2022-09-12T00:20:36.047Z,1012.06
2022-09-12T00:26:59.004Z,1012.06
2022-09-12T00:33:19.045Z,1012.04
2022-09-12T00:39:42.094Z,1011.98
2022-09-12T00:46:02.078Z,1011.96
2022-09-12T00:52:25.019Z,1011.91
2022-09-12T00:58:45.017Z,1011.81
2022-09-12T01:05:08.007Z,1011.79
2022-09-12T01:11:28.013Z,1011.81
2022-09-12T01:17:50.982Z,1011.81
2022-09-12T01:24:10.975Z,1011.79
2022-09-12T01:30:34.028Z,1011.75
2022-09-12T01:36:54.015Z,1011.73
2022-09-12T01:43:16.964Z,1011.73
2022-09-12T01:49:37.014Z,1011.69
2022-09-12T01:55:59.994Z,1011.65
2022-09-12T02:02:20.078Z,1011.63
2022-09-12T02:08:43.019Z,1011.53
2022-09-12T02:15:02.997Z,1011.53
2022-09-12T02:21:25.998Z,1011.53
2022-09-12T02:27:46.040Z,1011.49
2022-09-12T02:34:08.993Z,1011.51
2022-09-12T02:40:28.997Z,1011.49
2022-09-12T02:46:52.029Z,1011.46
2022-09-12T02:53:12.006Z,1011.42
2022-09-12T02:59:35.006Z,1011.32
2022-09-12T03:05:55.122Z,1011.28
2022-09-12T03:12:18.001Z,1011.24
2022-09-12T03:18:37.970Z,1011.2
2022-09-12T03:34:47.996Z,1011.28
2022-09-12T03:41:07.985Z,1011.32
2022-09-12T03:47:30.992Z,1011.34
2022-09-12T03:53:51.010Z,1011.32
2022-09-12T04:00:17.779Z,1011.32
2022-09-12T04:06:33.989Z,1011.28
2022-09-12T04:12:57.008Z,1011.28
2022-09-12T04:19:16.986Z,1011.22
2022-09-12T04:25:39.996Z,1011.18
2022-09-12T04:32:00.003Z,1011.14
2022-09-12T04:38:23.003Z,1011.12
2022-09-12T04:44:42.965Z,1011.12
2022-09-12T04:51:06.000Z,1011.1
2022-09-12T04:57:25.989Z,1011.12
2022-09-12T05:03:48.991Z,1011.07
2022-09-12T05:10:09.021Z,1011.01
2022-09-12T05:16:31.998Z,1010.95
2022-09-12T05:22:52.021Z,1010.91
2022-09-12T05:29:15.027Z,1010.89
2022-09-12T05:35:34.970Z,1010.89
2022-09-12T05:41:57.997Z,1010.93
2022-09-12T05:48:18.002Z,1010.95
2022-09-12T05:54:40.993Z,1010.93
2022-09-12T06:01:01.004Z,1010.99
2022-09-12T06:07:24.021Z,1011.09
2022-09-12T06:13:43.989Z,1011.1
2022-09-12T06:20:06.988Z,1011.09
2022-09-12T06:26:27.034Z,1011.12
2022-09-12T06:32:49.971Z,1011.12
2022-09-12T06:39:09.990Z,1011.12
2022-09-12T06:45:33.053Z,1011.07
2022-09-12T06:51:52.986Z,1011.1
2022-09-12T06:58:15.990Z,1011.14
2022-09-12T07:04:36.005Z,1011.1
2022-09-12T07:10:58.988Z,1011.1
2022-09-12T07:17:19.056Z,1011.1
2022-09-12T07:23:42.088Z,1011.12
2022-09-12T07:30:02.023Z,1011.09
2022-09-12T07:36:25.012Z,1011.12
2022-09-12T07:42:45.035Z,1011.14
2022-09-12T07:49:08.422Z,1011.16
2022-09-12T07:55:27.978Z,1011.14
2022-09-12T08:01:51.017Z,1011.14
2022-09-12T08:08:10.994Z,1011.14
2022-09-12T08:14:34.008Z,1011.12
2022-09-12T08:20:54.020Z,1011.14
2022-09-12T08:27:16.995Z,1011.14
2022-09-12T08:33:36.993Z,1011.12
2022-09-12T08:40:00.074Z,1011.09
2022-09-12T09:03:02.999Z,1011.03
2022-09-12T09:09:25.983Z,1011.01
2022-09-12T09:15:46.085Z,1010.95
2022-09-12T09:22:08.996Z,1010.87
2022-09-12T09:28:28.985Z,1010.85
2022-09-12T09:34:51.981Z,1010.73
2022-09-12T09:41:12.012Z,1010.63
2022-09-12T09:47:34.989Z,1010.49
2022-09-12T09:53:55.015Z,1010.39
2022-09-12T10:00:18.045Z,1010.33
2022-09-12T10:06:37.989Z,1010.31
2022-09-12T10:13:00.974Z,1010.25
2022-09-12T10:19:21.029Z,1010.2
2022-09-12T10:25:43.984Z,1010.14
2022-09-12T10:32:03.981Z,1010.08
2022-09-12T10:38:27.193Z,1010.04
2022-09-12T10:44:46.979Z,1009.94
2022-09-12T10:51:09.991Z,1009.88
2022-09-12T10:57:30.021Z,1009.8
2022-09-12T11:03:53.017Z,1009.78
2022-09-12T11:10:13.017Z,1009.73
2022-09-12T11:16:36.012Z,1009.65
2022-09-12T11:22:55.992Z,1009.55
2022-09-12T11:29:18.993Z,1009.43
2022-09-12T11:35:39.276Z,1009.33
2022-09-12T11:42:01.987Z,1009.3
2022-09-12T11:48:21.987Z,1009.26
2022-09-12T11:54:45.071Z,1009.18
2022-09-12T12:01:04.977Z,1009.12
2022-09-12T12:07:27.990Z,1009.08
2022-09-12T12:13:48.080Z,1008.98
2022-09-12T12:20:10.988Z,1008.96
2022-09-12T12:26:31.022Z,1008.88
2022-09-12T12:32:54.072Z,1008.9
2022-09-12T12:39:14.023Z,1008.81
2022-09-12T12:45:36.987Z,1008.73
2022-09-12T12:51:57.012Z,1008.63
2022-09-12T12:58:20.001Z,1008.59
2022-09-12T13:04:39.988Z,1008.47
2022-09-12T13:11:03.092Z,1008.36
2022-09-12T13:17:23.007Z,1008.24
2022-09-12T13:23:45.982Z,1008.16
2022-09-12T13:30:06.028Z,1007.98
2022-09-12T13:36:29.012Z,1007.98
2022-09-12T13:42:48.991Z,1007.86
2022-09-12T13:49:12.257Z,1007.82
2022-09-12T13:55:31.993Z,1007.8
2022-09-12T14:01:55.071Z,1007.74
2022-09-12T14:24:22.985Z,1007.64
2022-09-12T14:30:45.985Z,1007.56
2022-09-12T14:37:05.988Z,1007.49
2022-09-12T14:43:29.005Z,1007.39
2022-09-12T14:49:48.986Z,1007.29
2022-09-12T14:56:11.973Z,1007.21
2022-09-12T15:02:32.010Z,1007.13
2022-09-12T15:08:56.210Z,1007.02
2022-09-12T15:15:15.983Z,1006.98
2022-09-12T15:21:39.019Z,1006.92
2022-09-12T15:27:58.978Z,1006.92
2022-09-12T15:34:21.991Z,1006.94
2022-09-12T15:40:42.001Z,1006.9
2022-09-12T15:47:04.978Z,1006.86
2022-09-12T15:53:24.987Z,1006.8
2022-09-12T15:59:48.087Z,1006.78
2022-09-12T16:06:07.979Z,1006.72
2022-09-12T16:12:30.980Z,1006.68
2022-09-12T16:18:51.025Z,1006.65
2022-09-12T16:25:13.997Z,1006.63
2022-09-12T16:31:33.995Z,1006.59
2022-09-12T16:37:57.104Z,1006.53
2022-09-12T16:44:16.986Z,1006.51
2022-09-12T16:50:39.973Z,1006.43
2022-09-12T16:57:00.011Z,1006.29
2022-09-12T17:03:22.974Z,1006.25
2022-09-12T17:09:46.229Z,1006.33
2022-09-12T17:16:06.036Z,1006.29
2022-09-12T17:22:25.972Z,1006.21
2022-09-12T17:28:48.982Z,1006.19
2022-09-12T17:35:08.997Z,1006.18
2022-09-12T17:41:31.982Z,1006.16
2022-09-12T17:47:51.968Z,1006.16
2022-09-12T17:54:14.990Z,1006.18
2022-09-12T18:00:34.982Z,1006.23
2022-09-12T18:06:57.974Z,1006.23
2022-09-12T18:13:18.043Z,1006.25
2022-09-12T18:19:40.984Z,1006.27
2022-09-12T18:26:00.971Z,1006.25
2022-09-12T18:32:24.003Z,1006.29
2022-09-12T18:38:43.964Z,1006.25
2022-09-12T18:45:06.982Z,1006.18
2022-09-12T18:51:26.994Z,1006.16
2022-09-12T18:57:49.969Z,1006.19
2022-09-12T19:04:09.980Z,1006.23
2022-09-12T19:10:32.996Z,1006.23
2022-09-12T19:16:52.968Z,1006.23
2022-09-12T19:23:15.981Z,1006.19
2022-09-12T19:29:35.992Z,1006.21
2022-09-12T19:35:59.013Z,1006.16
2022-09-12T19:42:18.967Z,1006.1
2022-09-12T19:48:41.991Z,1006.1
2022-09-12T19:55:01.977Z,1006.02
2022-09-12T20:01:25.108Z,1005.96
2022-09-12T20:24:11.071Z,1005.98
2022-09-12T20:30:33.981Z,1006.04
2022-09-12T20:36:53.988Z,1006.04
2022-09-12T20:43:16.986Z,1006.06
2022-09-12T20:49:36.967Z,1006.04
2022-09-12T20:55:59.993Z,1006.02
2022-09-12T21:02:20.112Z,1005.98
2022-09-12T21:08:42.995Z,1005.94
2022-09-12T21:15:02.975Z,1005.96
2022-09-12T21:21:25.998Z,1005.98
2022-09-12T21:27:46.044Z,1006
2022-09-12T21:34:09.080Z,1006
2022-09-12T21:40:29.003Z,1005.94
2022-09-12T21:46:52.019Z,1005.82
2022-09-12T21:53:11.971Z,1005.76
2022-09-12T21:59:34.991Z,1005.71
2022-09-12T22:22:32.078Z,1005.65
2022-09-12T22:28:51.974Z,1005.67
2022-09-12T22:35:14.973Z,1005.69
2022-09-12T22:41:35.001Z,1005.69
2022-09-12T22:48:00.709Z,1005.65
2022-09-12T22:54:17.972Z,1005.69
2022-09-12T23:00:41.037Z,1005.74
2022-09-12T23:07:00.968Z,1005.78
2022-09-12T23:13:23.992Z,1005.78
2022-09-12T23:19:44.049Z,1005.82
2022-09-12T23:26:06.993Z,1005.86
2022-09-12T23:32:26.969Z,1005.84
2022-09-12T23:38:50.154Z,1005.78
2022-09-12T23:45:09.967Z,1005.74
2022-09-12T23:51:32.976Z,1005.67
2022-09-12T23:57:52.995Z,1005.67
